sensor_id;sensor_type;location;lat;lon;timestamp;P1;durP1;ratioP1;P2;durP2;ratioP2
80193;SDS011;69515;42.072;21.504;2023-04-21T06:06:15;7.15;;;4.85;;
80193;SDS011;69515;42.072;21.504;2023-04-21T06:08:42;9.32;;;5.05;;
80193;SDS011;69515;42.072;21.504;2023-04-21T06:11:08;15.52;;;9.18;;
80193;SDS011;69515;42.072;21.504;2023-04-21T06:13:34;15.18;;;9.85;;
80193;SDS011;69515;42.072;21.504;2023-04-21T06:16:00;8.50;;;5.70;;
80193;SDS011;69515;42.072;21.504;2023-04-21T06:18:27;10.40;;;7.15;;
80193;SDS011;69515;42.072;21.504;2023-04-21T06:20:53;10.80;;;6.60;;
80193;SDS011;69515;42.072;21.504;2023-04-21T06:23:20;10.10;;;7.75;;
80193;SDS011;69515;42.072;21.504;2023-04-21T06:25:47;7.28;;;5.25;;
80193;SDS011;69515;42.072;21.504;2023-04-21T06:28:24;8.43;;;6.55;;
80193;SDS011;69515;42.072;21.504;2023-04-21T06:30:50;9.45;;;5.93;;
80193;SDS011;69515;42.072;21.504;2023-04-21T06:33:16;7.60;;;5.57;;
80193;SDS011;69515;42.072;21.504;2023-04-21T06:35:42;15.95;;;10.13;;
80193;SDS011;69515;42.072;21.504;2023-04-21T06:38:08;18.27;;;12.45;;
80193;SDS011;69515;42.072;21.504;2023-04-21T06:40:34;22.70;;;14.85;;
80193;SDS011;69515;42.072;21.504;2023-04-21T06:43:01;19.30;;;14.38;;
80193;SDS011;69515;42.072;21.504;2023-04-21T06:45:27;19.95;;;13.70;;
80193;SDS011;69515;42.072;21.504;2023-04-21T06:47:53;15.45;;;13.13;;
80193;SDS011;69515;42.072;21.504;2023-04-21T06:50:19;17.60;;;13.50;;
80193;SDS011;69515;42.072;21.504;2023-04-21T06:52:45;16.98;;;12.82;;
80193;SDS011;69515;42.072;21.504;2023-04-21T06:55:12;17.25;;;12.38;;
80193;SDS011;69515;42.072;21.504;2023-04-21T06:57:38;18.05;;;13.45;;
80193;SDS011;69515;42.072;21.504;2023-04-21T07:00:04;17.33;;;12.23;;
80193;SDS011;69515;42.072;21.504;2023-04-21T07:02:30;18.73;;;12.27;;
80193;SDS011;69515;42.072;21.504;2023-04-21T07:04:57;19.65;;;13.82;;
80193;SDS011;69515;42.072;21.504;2023-04-21T07:07:23;15.32;;;12.18;;
80193;SDS011;69515;42.072;21.504;2023-04-21T07:09:49;14.30;;;11.70;;
80193;SDS011;69515;42.072;21.504;2023-04-21T07:12:15;15.13;;;12.05;;
80193;SDS011;69515;42.072;21.504;2023-04-21T07:14:41;17.83;;;13.40;;
80193;SDS011;69515;42.072;21.504;2023-04-21T07:17:08;20.25;;;13.90;;
80193;SDS011;69515;42.072;21.504;2023-04-21T07:19:34;18.20;;;13.15;;
80193;SDS011;69515;42.072;21.504;2023-04-21T07:22:01;17.42;;;11.98;;
80193;SDS011;69515;42.072;21.504;2023-04-21T07:24:27;17.13;;;12.35;;
80193;SDS011;69515;42.072;21.504;2023-04-21T07:26:53;17.33;;;12.52;;
80193;SDS011;69515;42.072;21.504;2023-04-21T07:29:19;19.63;;;12.95;;
80193;SDS011;69515;42.072;21.504;2023-04-21T07:31:46;17.40;;;12.73;;
80193;SDS011;69515;42.072;21.504;2023-04-21T07:34:12;17.42;;;12.77;;
80193;SDS011;69515;42.072;21.504;2023-04-21T07:36:38;15.05;;;11.57;;
80193;SDS011;69515;42.072;21.504;2023-04-21T07:39:05;12.30;;;9.27;;
80193;SDS011;69515;42.072;21.504;2023-04-21T07:41:31;15.77;;;9.70;;
80193;SDS011;69515;42.072;21.504;2023-04-21T07:43:57;15.38;;;9.77;;
80193;SDS011;69515;42.072;21.504;2023-04-21T07:46:23;13.52;;;9.50;;
80193;SDS011;69515;42.072;21.504;2023-04-21T07:48:54;22.13;;;9.63;;
80193;SDS011;69515;42.072;21.504;2023-04-21T07:51:21;13.02;;;9.18;;
80193;SDS011;69515;42.072;21.504;2023-04-21T07:53:48;15.70;;;9.57;;
80193;SDS011;69515;42.072;21.504;2023-04-21T07:56:14;14.48;;;10.50;;
80193;SDS011;69515;42.072;21.504;2023-04-21T07:58:41;15.52;;;9.95;;
80193;SDS011;69515;42.072;21.504;2023-04-21T08:01:07;13.02;;;10.07;;
80193;SDS011;69515;42.072;21.504;2023-04-21T08:03:33;15.85;;;10.52;;
80193;SDS011;69515;42.072;21.504;2023-04-21T08:06:00;16.98;;;10.13;;
80193;SDS011;69515;42.072;21.504;2023-04-21T08:08:26;14.10;;;9.45;;
80193;SDS011;69515;42.072;21.504;2023-04-21T08:10:52;13.50;;;8.95;;
80193;SDS011;69515;42.072;21.504;2023-04-21T08:13:19;13.77;;;8.93;;
80193;SDS011;69515;42.072;21.504;2023-04-21T08:15:49;13.40;;;9.15;;
80193;SDS011;69515;42.072;21.504;2023-04-21T08:18:16;11.80;;;8.63;;
80193;SDS011;69515;42.072;21.504;2023-04-21T08:20:44;14.65;;;8.98;;
80193;SDS011;69515;42.072;21.504;2023-04-21T08:23:12;12.13;;;8.57;;
80193;SDS011;69515;42.072;21.504;2023-04-21T08:25:38;13.98;;;9.68;;
80193;SDS011;69515;42.072;21.504;2023-04-21T08:28:04;14.95;;;11.18;;
80193;SDS011;69515;42.072;21.504;2023-04-21T08:30:31;14.57;;;9.80;;
80193;SDS011;69515;42.072;21.504;2023-04-21T08:32:57;17.05;;;11.18;;
80193;SDS011;69515;42.072;21.504;2023-04-21T08:35:23;15.18;;;10.00;;
80193;SDS011;69515;42.072;21.504;2023-04-21T08:37:51;13.18;;;8.80;;
80193;SDS011;69515;42.072;21.504;2023-04-21T08:40:17;13.23;;;8.90;;
80193;SDS011;69515;42.072;21.504;2023-04-21T08:42:43;14.68;;;10.38;;
80193;SDS011;69515;42.072;21.504;2023-04-21T08:45:10;17.15;;;9.93;;
80193;SDS011;69515;42.072;21.504;2023-04-21T08:47:39;14.88;;;10.95;;
80193;SDS011;69515;42.072;21.504;2023-04-21T08:50:11;16.27;;;10.07;;
80193;SDS011;69515;42.072;21.504;2023-04-21T08:52:38;15.48;;;10.35;;
80193;SDS011;69515;42.072;21.504;2023-04-21T08:55:05;14.00;;;10.77;;
80193;SDS011;69515;42.072;21.504;2023-04-21T08:57:31;14.43;;;11.25;;
80193;SDS011;69515;42.072;21.504;2023-04-21T08:59:57;17.67;;;10.75;;
80193;SDS011;69515;42.072;21.504;2023-04-21T09:02:24;13.77;;;10.27;;
80193;SDS011;69515;42.072;21.504;2023-04-21T09:04:51;15.55;;;11.18;;
80193;SDS011;69515;42.072;21.504;2023-04-21T09:07:29;14.63;;;10.93;;
80193;SDS011;69515;42.072;21.504;2023-04-21T09:09:56;16.73;;;10.95;;
80193;SDS011;69515;42.072;21.504;2023-04-21T09:12:24;16.83;;;11.63;;
80193;SDS011;69515;42.072;21.504;2023-04-21T09:14:51;15.95;;;12.18;;
80193;SDS011;69515;42.072;21.504;2023-04-21T09:17:17;16.27;;;12.60;;
80193;SDS011;69515;42.072;21.504;2023-04-21T09:19:44;16.27;;;11.65;;
80193;SDS011;69515;42.072;21.504;2023-04-21T09:22:14;16.63;;;10.88;;
80193;SDS011;69515;42.072;21.504;2023-04-21T09:24:44;15.85;;;10.15;;
80193;SDS011;69515;42.072;21.504;2023-04-21T09:27:11;15.38;;;9.88;;
80193;SDS011;69515;42.072;21.504;2023-04-21T09:29:37;13.50;;;10.32;;
80193;SDS011;69515;42.072;21.504;2023-04-21T09:32:03;13.85;;;9.93;;
80193;SDS011;69515;42.072;21.504;2023-04-21T09:34:29;12.60;;;8.38;;
80193;SDS011;69515;42.072;21.504;2023-04-21T09:36:58;14.93;;;9.30;;
80193;SDS011;69515;42.072;21.504;2023-04-21T09:39:30;14.50;;;9.98;;
80193;SDS011;69515;42.072;21.504;2023-04-21T09:41:56;14.18;;;8.82;;
80193;SDS011;69515;42.072;21.504;2023-04-21T09:44:23;14.57;;;9.50;;
80193;SDS011;69515;42.072;21.504;2023-04-21T09:46:50;12.65;;;9.30;;
80193;SDS011;69515;42.072;21.504;2023-04-21T09:49:19;13.23;;;8.43;;
80193;SDS011;69515;42.072;21.504;2023-04-21T09:51:48;11.88;;;8.55;;
80193;SDS011;69515;42.072;21.504;2023-04-21T09:54:15;11.23;;;8.30;;
80193;SDS011;69515;42.072;21.504;2023-04-21T09:56:42;13.88;;;8.18;;
80193;SDS011;69515;42.072;21.504;2023-04-21T09:59:09;11.95;;;8.35;;
80193;SDS011;69515;42.072;21.504;2023-04-21T10:01:36;12.30;;;8.00;;
80193;SDS011;69515;42.072;21.504;2023-04-21T10:04:03;11.80;;;8.38;;
80193;SDS011;69515;42.072;21.504;2023-04-21T10:06:29;12.45;;;7.90;;
80193;SDS011;69515;42.072;21.504;2023-04-21T10:08:56;11.00;;;7.03;;
80193;SDS011;69515;42.072;21.504;2023-04-21T10:11:23;11.60;;;8.57;;
80193;SDS011;69515;42.072;21.504;2023-04-21T10:13:50;16.05;;;10.40;;
80193;SDS011;69515;42.072;21.504;2023-04-21T10:16:16;12.80;;;8.90;;
80193;SDS011;69515;42.072;21.504;2023-04-21T10:18:44;13.02;;;9.23;;
80193;SDS011;69515;42.072;21.504;2023-04-21T10:21:11;12.50;;;8.45;;
80193;SDS011;69515;42.072;21.504;2023-04-21T10:23:41;14.82;;;9.13;;
80193;SDS011;69515;42.072;21.504;2023-04-21T10:26:09;12.40;;;8.23;;
80193;SDS011;69515;42.072;21.504;2023-04-21T10:31:15;11.85;;;6.82;;
80193;SDS011;69515;42.072;21.504;2023-04-21T10:33:59;13.98;;;8.00;;
80193;SDS011;69515;42.072;21.504;2023-04-21T10:36:29;10.98;;;7.90;;
80193;SDS011;69515;42.072;21.504;2023-04-21T10:38:55;12.60;;;8.20;;
80193;SDS011;69515;42.072;21.504;2023-04-21T10:41:28;12.77;;;8.77;;
80193;SDS011;69515;42.072;21.504;2023-04-21T10:44:10;10.50;;;7.80;;
80193;SDS011;69515;42.072;21.504;2023-04-21T10:46:39;11.93;;;7.82;;
80193;SDS011;69515;42.072;21.504;2023-04-21T10:49:07;11.32;;;7.47;;
80193;SDS011;69515;42.072;21.504;2023-04-21T10:56:44;11.85;;;7.38;;
80193;SDS011;69515;42.072;21.504;2023-04-21T10:59:10;11.40;;;7.78;;
80193;SDS011;69515;42.072;21.504;2023-04-21T11:01:38;12.27;;;8.75;;
80193;SDS011;69515;42.072;21.504;2023-04-21T11:04:05;10.40;;;7.35;;
80193;SDS011;69515;42.072;21.504;2023-04-21T11:06:31;12.35;;;7.93;;
80193;SDS011;69515;42.072;21.504;2023-04-21T11:08:57;10.38;;;7.13;;
80193;SDS011;69515;42.072;21.504;2023-04-21T11:11:23;9.65;;;6.93;;
80193;SDS011;69515;42.072;21.504;2023-04-21T11:13:51;9.10;;;6.88;;
80193;SDS011;69515;42.072;21.504;2023-04-21T11:16:18;11.68;;;8.00;;
80193;SDS011;69515;42.072;21.504;2023-04-21T11:18:45;11.07;;;8.30;;
80193;SDS011;69515;42.072;21.504;2023-04-21T11:21:12;10.98;;;7.70;;
80193;SDS011;69515;42.072;21.504;2023-04-21T11:23:48;11.23;;;7.93;;
80193;SDS011;69515;42.072;21.504;2023-04-21T11:26:15;9.68;;;7.30;;
80193;SDS011;69515;42.072;21.504;2023-04-21T11:28:42;10.90;;;7.55;;
80193;SDS011;69515;42.072;21.504;2023-04-21T11:31:08;12.05;;;8.43;;
80193;SDS011;69515;42.072;21.504;2023-04-21T11:33:37;12.27;;;8.13;;
80193;SDS011;69515;42.072;21.504;2023-04-21T11:36:07;13.30;;;7.80;;
80193;SDS011;69515;42.072;21.504;2023-04-21T11:38:39;10.75;;;7.53;;
80193;SDS011;69515;42.072;21.504;2023-04-21T11:41:06;12.00;;;7.10;;
80193;SDS011;69515;42.072;21.504;2023-04-21T11:43:35;10.20;;;7.20;;
80193;SDS011;69515;42.072;21.504;2023-04-21T11:46:17;9.48;;;7.07;;
80193;SDS011;69515;42.072;21.504;2023-04-21T11:48:44;9.55;;;6.88;;
80193;SDS011;69515;42.072;21.504;2023-04-21T11:51:14;14.57;;;7.72;;
80193;SDS011;69515;42.072;21.504;2023-04-21T11:53:40;11.25;;;7.60;;
80193;SDS011;69515;42.072;21.504;2023-04-21T11:56:07;11.60;;;7.03;;
80193;SDS011;69515;42.072;21.504;2023-04-21T11:58:36;9.48;;;6.95;;
80193;SDS011;69515;42.072;21.504;2023-04-21T12:01:06;8.98;;;7.32;;
80193;SDS011;69515;42.072;21.504;2023-04-21T12:03:33;10.18;;;7.80;;
80193;SDS011;69515;42.072;21.504;2023-04-21T12:06:00;10.98;;;7.25;;
80193;SDS011;69515;42.072;21.504;2023-04-21T12:08:32;10.40;;;7.45;;
80193;SDS011;69515;42.072;21.504;2023-04-21T12:10:58;9.63;;;7.05;;
80193;SDS011;69515;42.072;21.504;2023-04-21T12:13:28;9.60;;;7.65;;
80193;SDS011;69515;42.072;21.504;2023-04-21T12:15:55;11.02;;;8.20;;
80193;SDS011;69515;42.072;21.504;2023-04-21T12:18:21;10.13;;;8.15;;
80193;SDS011;69515;42.072;21.504;2023-04-21T12:20:52;12.23;;;7.45;;
80193;SDS011;69515;42.072;21.504;2023-04-21T12:23:18;11.57;;;7.65;;
80193;SDS011;69515;42.072;21.504;2023-04-21T12:25:45;9.30;;;7.30;;
80193;SDS011;69515;42.072;21.504;2023-04-21T12:28:12;9.88;;;7.10;;
80193;SDS011;69515;42.072;21.504;2023-04-21T12:30:41;13.23;;;8.65;;
80193;SDS011;69515;42.072;21.504;2023-04-21T12:33:07;10.35;;;7.88;;
80193;SDS011;69515;42.072;21.504;2023-04-21T12:35:33;10.43;;;8.10;;
80193;SDS011;69515;42.072;21.504;2023-04-21T12:38:00;10.55;;;7.50;;
80193;SDS011;69515;42.072;21.504;2023-04-21T12:40:26;10.20;;;7.88;;
80193;SDS011;69515;42.072;21.504;2023-04-21T12:42:52;11.75;;;7.43;;
80193;SDS011;69515;42.072;21.504;2023-04-21T12:45:18;11.82;;;7.93;;
80193;SDS011;69515;42.072;21.504;2023-04-21T12:47:45;10.05;;;6.88;;
80193;SDS011;69515;42.072;21.504;2023-04-21T12:50:11;11.82;;;7.95;;
80193;SDS011;69515;42.072;21.504;2023-04-21T12:52:38;11.55;;;7.93;;
80193;SDS011;69515;42.072;21.504;2023-04-21T12:55:04;10.18;;;7.38;;
80193;SDS011;69515;42.072;21.504;2023-04-21T12:57:31;9.27;;;7.20;;
80193;SDS011;69515;42.072;21.504;2023-04-21T12:59:57;10.15;;;7.63;;
80193;SDS011;69515;42.072;21.504;2023-04-21T13:02:23;12.05;;;8.23;;
80193;SDS011;69515;42.072;21.504;2023-04-21T13:04:49;11.20;;;7.07;;
80193;SDS011;69515;42.072;21.504;2023-04-21T13:07:16;9.35;;;7.60;;
80193;SDS011;69515;42.072;21.504;2023-04-21T13:09:45;10.73;;;7.93;;
80193;SDS011;69515;42.072;21.504;2023-04-21T13:12:11;11.82;;;7.18;;
80193;SDS011;69515;42.072;21.504;2023-04-21T13:14:37;9.43;;;6.65;;
80193;SDS011;69515;42.072;21.504;2023-04-21T13:17:04;10.55;;;7.75;;
80193;SDS011;69515;42.072;21.504;2023-04-21T13:19:30;10.98;;;7.00;;
80193;SDS011;69515;42.072;21.504;2023-04-21T13:21:56;10.40;;;8.00;;
80193;SDS011;69515;42.072;21.504;2023-04-21T13:24:22;10.55;;;8.15;;
80193;SDS011;69515;42.072;21.504;2023-04-21T13:26:50;12.30;;;7.60;;
80193;SDS011;69515;42.072;21.504;2023-04-21T13:29:17;8.90;;;7.55;;
80193;SDS011;69515;42.072;21.504;2023-04-21T13:31:43;11.02;;;7.53;;
80193;SDS011;69515;42.072;21.504;2023-04-21T13:34:09;10.93;;;7.10;;
80193;SDS011;69515;42.072;21.504;2023-04-21T13:36:36;10.98;;;7.07;;
80193;SDS011;69515;42.072;21.504;2023-04-21T13:39:02;9.98;;;7.03;;
80193;SDS011;69515;42.072;21.504;2023-04-21T13:41:29;9.52;;;7.18;;
80193;SDS011;69515;42.072;21.504;2023-04-21T13:43:55;11.30;;;7.63;;
80193;SDS011;69515;42.072;21.504;2023-04-21T13:46:22;9.75;;;8.00;;
80193;SDS011;69515;42.072;21.504;2023-04-21T13:48:48;12.18;;;8.68;;
80193;SDS011;69515;42.072;21.504;2023-04-21T13:51:15;10.65;;;7.70;;
80193;SDS011;69515;42.072;21.504;2023-04-21T13:53:41;9.27;;;6.25;;
80193;SDS011;69515;42.072;21.504;2023-04-21T13:56:08;11.57;;;6.93;;
80193;SDS011;69515;42.072;21.504;2023-04-21T13:58:35;9.10;;;6.75;;
80193;SDS011;69515;42.072;21.504;2023-04-21T14:01:02;7.88;;;6.05;;
80193;SDS011;69515;42.072;21.504;2023-04-21T14:03:28;10.40;;;6.25;;
80193;SDS011;69515;42.072;21.504;2023-04-21T14:05:54;8.98;;;6.05;;
80193;SDS011;69515;42.072;21.504;2023-04-21T14:08:21;7.38;;;5.68;;
80193;SDS011;69515;42.072;21.504;2023-04-21T14:10:47;7.60;;;5.80;;
80193;SDS011;69515;42.072;21.504;2023-04-21T14:13:13;8.20;;;6.43;;
80193;SDS011;69515;42.072;21.504;2023-04-21T14:15:39;8.98;;;6.18;;
80193;SDS011;69515;42.072;21.504;2023-04-21T14:18:06;7.85;;;6.40;;
80193;SDS011;69515;42.072;21.504;2023-04-21T14:20:32;12.82;;;8.98;;
80193;SDS011;69515;42.072;21.504;2023-04-21T14:22:58;8.57;;;6.35;;
80193;SDS011;69515;42.072;21.504;2023-04-21T14:25:24;10.18;;;6.32;;
80193;SDS011;69515;42.072;21.504;2023-04-21T14:27:51;11.73;;;6.47;;
80193;SDS011;69515;42.072;21.504;2023-04-21T14:30:17;10.05;;;6.97;;
80193;SDS011;69515;42.072;21.504;2023-04-21T14:32:43;9.02;;;7.65;;
80193;SDS011;69515;42.072;21.504;2023-04-21T14:35:10;11.18;;;7.47;;
80193;SDS011;69515;42.072;21.504;2023-04-21T14:37:37;10.50;;;8.02;;
80193;SDS011;69515;42.072;21.504;2023-04-21T14:40:04;12.07;;;8.10;;
80193;SDS011;69515;42.072;21.504;2023-04-21T14:42:31;10.98;;;8.05;;
80193;SDS011;69515;42.072;21.504;2023-04-21T14:44:57;11.45;;;7.88;;
80193;SDS011;69515;42.072;21.504;2023-04-21T14:47:24;17.23;;;8.32;;
80193;SDS011;69515;42.072;21.504;2023-04-21T14:49:50;9.50;;;7.38;;
80193;SDS011;69515;42.072;21.504;2023-04-21T14:52:18;9.63;;;7.53;;
80193;SDS011;69515;42.072;21.504;2023-04-21T14:54:45;10.02;;;7.88;;
80193;SDS011;69515;42.072;21.504;2023-04-21T14:57:11;11.57;;;7.93;;
80193;SDS011;69515;42.072;21.504;2023-04-21T14:59:37;12.20;;;7.53;;
80193;SDS011;69515;42.072;21.504;2023-04-21T15:02:04;9.05;;;7.20;;
80193;SDS011;69515;42.072;21.504;2023-04-21T15:04:30;11.20;;;7.60;;
80193;SDS011;69515;42.072;21.504;2023-04-21T15:06:57;9.63;;;6.97;;
80193;SDS011;69515;42.072;21.504;2023-04-21T15:09:23;17.95;;;9.20;;
80193;SDS011;69515;42.072;21.504;2023-04-21T15:11:49;13.02;;;8.00;;
80193;SDS011;69515;42.072;21.504;2023-04-21T15:14:16;10.88;;;7.30;;
80193;SDS011;69515;42.072;21.504;2023-04-21T15:16:42;11.45;;;7.53;;
80193;SDS011;69515;42.072;21.504;2023-04-21T15:19:08;12.65;;;7.80;;
80193;SDS011;69515;42.072;21.504;2023-04-21T15:21:35;8.57;;;6.28;;
80193;SDS011;69515;42.072;21.504;2023-04-21T15:24:01;10.18;;;6.20;;
80193;SDS011;69515;42.072;21.504;2023-04-21T15:26:27;8.80;;;5.95;;
80193;SDS011;69515;42.072;21.504;2023-04-21T15:28:54;7.32;;;5.20;;
80193;SDS011;69515;42.072;21.504;2023-04-21T15:31:21;7.75;;;5.88;;
80193;SDS011;69515;42.072;21.504;2023-04-21T15:33:48;10.82;;;6.03;;
80193;SDS011;69515;42.072;21.504;2023-04-21T15:36:14;8.60;;;6.15;;
80193;SDS011;69515;42.072;21.504;2023-04-21T15:38:40;9.90;;;6.20;;
80193;SDS011;69515;42.072;21.504;2023-04-21T15:41:06;9.30;;;6.55;;
80193;SDS011;69515;42.072;21.504;2023-04-21T15:43:33;10.35;;;8.30;;
80193;SDS011;69515;42.072;21.504;2023-04-21T15:46:00;12.43;;;8.13;;
80193;SDS011;69515;42.072;21.504;2023-04-21T15:48:26;13.48;;;8.45;;
80193;SDS011;69515;42.072;21.504;2023-04-21T15:50:52;14.30;;;8.52;;
80193;SDS011;69515;42.072;21.504;2023-04-21T15:53:18;14.43;;;8.43;;
80193;SDS011;69515;42.072;21.504;2023-04-21T15:55:45;10.35;;;7.72;;
80193;SDS011;69515;42.072;21.504;2023-04-21T15:58:11;13.77;;;8.63;;
80193;SDS011;69515;42.072;21.504;2023-04-21T16:00:40;17.20;;;8.48;;
80193;SDS011;69515;42.072;21.504;2023-04-21T16:03:07;10.68;;;8.25;;
80193;SDS011;69515;42.072;21.504;2023-04-21T16:05:33;14.48;;;10.20;;
80193;SDS011;69515;42.072;21.504;2023-04-21T16:07:59;10.80;;;8.00;;
80193;SDS011;69515;42.072;21.504;2023-04-21T16:10:26;11.48;;;7.93;;
80193;SDS011;69515;42.072;21.504;2023-04-21T16:12:52;15.63;;;11.75;;
80193;SDS011;69515;42.072;21.504;2023-04-21T16:15:18;11.35;;;8.63;;
80193;SDS011;69515;42.072;21.504;2023-04-21T16:17:45;10.25;;;7.35;;
80193;SDS011;69515;42.072;21.504;2023-04-21T16:20:11;14.13;;;9.77;;
80193;SDS011;69515;42.072;21.504;2023-04-21T16:22:38;14.20;;;8.50;;
80193;SDS011;69515;42.072;21.504;2023-04-21T16:25:04;11.80;;;7.28;;
80193;SDS011;69515;42.072;21.504;2023-04-21T16:27:30;11.07;;;7.85;;
80193;SDS011;69515;42.072;21.504;2023-04-21T16:29:57;10.43;;;8.40;;
80193;SDS011;69515;42.072;21.504;2023-04-21T16:32:23;10.77;;;7.75;;
80193;SDS011;69515;42.072;21.504;2023-04-21T16:34:49;11.35;;;7.95;;
80193;SDS011;69515;42.072;21.504;2023-04-21T16:37:15;11.13;;;7.82;;
80193;SDS011;69515;42.072;21.504;2023-04-21T16:39:42;11.25;;;7.75;;
80193;SDS011;69515;42.072;21.504;2023-04-21T16:42:08;11.77;;;7.75;;
80193;SDS011;69515;42.072;21.504;2023-04-21T16:44:34;14.57;;;10.05;;
80193;SDS011;69515;42.072;21.504;2023-04-21T16:47:00;21.20;;;14.95;;
80193;SDS011;69515;42.072;21.504;2023-04-21T16:49:26;12.27;;;8.88;;
80193;SDS011;69515;42.072;21.504;2023-04-21T16:51:54;10.80;;;7.00;;
80193;SDS011;69515;42.072;21.504;2023-04-21T16:54:20;12.80;;;7.18;;
80193;SDS011;69515;42.072;21.504;2023-04-21T16:56:48;10.68;;;7.65;;
80193;SDS011;69515;42.072;21.504;2023-04-21T16:59:14;11.10;;;7.13;;
80193;SDS011;69515;42.072;21.504;2023-04-21T17:01:43;11.35;;;7.63;;
80193;SDS011;69515;42.072;21.504;2023-04-21T17:04:09;11.57;;;7.40;;
80193;SDS011;69515;42.072;21.504;2023-04-21T17:06:38;25.17;;;11.82;;
80193;SDS011;69515;42.072;21.504;2023-04-21T17:09:05;10.20;;;6.65;;
80193;SDS011;69515;42.072;21.504;2023-04-21T17:11:32;19.55;;;11.50;;
80193;SDS011;69515;42.072;21.504;2023-04-21T17:13:58;10.70;;;6.53;;
80193;SDS011;69515;42.072;21.504;2023-04-21T17:16:24;12.98;;;6.10;;
80193;SDS011;69515;42.072;21.504;2023-04-21T17:18:50;16.38;;;7.18;;
80193;SDS011;69515;42.072;21.504;2023-04-21T17:21:17;19.13;;;8.23;;
80193;SDS011;69515;42.072;21.504;2023-04-21T17:23:43;12.20;;;7.20;;
80193;SDS011;69515;42.072;21.504;2023-04-21T17:26:09;12.57;;;8.43;;
80193;SDS011;69515;42.072;21.504;2023-04-21T17:28:35;9.05;;;5.70;;
80193;SDS011;69515;42.072;21.504;2023-04-21T17:31:02;10.27;;;6.57;;
80193;SDS011;69515;42.072;21.504;2023-04-21T17:33:29;12.20;;;6.47;;
80193;SDS011;69515;42.072;21.504;2023-04-21T17:35:55;9.68;;;6.47;;
80193;SDS011;69515;42.072;21.504;2023-04-21T17:38:22;11.40;;;6.65;;
80193;SDS011;69515;42.072;21.504;2023-04-21T17:40:48;17.17;;;7.95;;
80193;SDS011;69515;42.072;21.504;2023-04-21T17:43:14;13.48;;;8.00;;
80193;SDS011;69515;42.072;21.504;2023-04-21T17:45:45;10.52;;;6.82;;
80193;SDS011;69515;42.072;21.504;2023-04-21T17:48:12;11.75;;;5.97;;
80193;SDS011;69515;42.072;21.504;2023-04-21T17:50:38;11.50;;;5.88;;
80193;SDS011;69515;42.072;21.504;2023-04-21T17:53:05;9.15;;;5.35;;
80193;SDS011;69515;42.072;21.504;2023-04-21T17:55:31;13.65;;;5.97;;
80193;SDS011;69515;42.072;21.504;2023-04-21T17:57:57;10.07;;;5.18;;
80193;SDS011;69515;42.072;21.504;2023-04-21T18:00:23;9.38;;;4.50;;
80193;SDS011;69515;42.072;21.504;2023-04-21T18:02:49;8.98;;;4.32;;
80193;SDS011;69515;42.072;21.504;2023-04-21T18:05:16;7.70;;;4.57;;
80193;SDS011;69515;42.072;21.504;2023-04-21T18:07:42;7.95;;;4.50;;
80193;SDS011;69515;42.072;21.504;2023-04-21T18:10:09;9.77;;;4.45;;
80193;SDS011;69515;42.072;21.504;2023-04-21T18:12:35;7.72;;;4.78;;
80193;SDS011;69515;42.072;21.504;2023-04-21T18:15:01;9.93;;;4.75;;
80193;SDS011;69515;42.072;21.504;2023-04-21T18:17:29;8.73;;;4.78;;
80193;SDS011;69515;42.072;21.504;2023-04-21T18:19:55;7.85;;;4.80;;
80193;SDS011;69515;42.072;21.504;2023-04-21T18:22:21;9.57;;;4.97;;
80193;SDS011;69515;42.072;21.504;2023-04-21T18:24:47;9.20;;;4.90;;
80193;SDS011;69515;42.072;21.504;2023-04-21T18:27:14;7.32;;;4.43;;
80193;SDS011;69515;42.072;21.504;2023-04-21T18:29:40;8.52;;;4.68;;
80193;SDS011;69515;42.072;21.504;2023-04-21T18:32:06;8.98;;;5.00;;
80193;SDS011;69515;42.072;21.504;2023-04-21T18:34:33;8.63;;;5.70;;
80193;SDS011;69515;42.072;21.504;2023-04-21T18:36:59;10.38;;;5.45;;
80193;SDS011;69515;42.072;21.504;2023-04-21T18:39:25;10.38;;;5.65;;
80193;SDS011;69515;42.072;21.504;2023-04-21T18:41:52;13.27;;;5.25;;
80193;SDS011;69515;42.072;21.504;2023-04-21T18:44:18;13.52;;;6.15;;
80193;SDS011;69515;42.072;21.504;2023-04-21T18:46:44;10.60;;;5.57;;
80193;SDS011;69515;42.072;21.504;2023-04-21T18:49:10;10.27;;;6.10;;
80193;SDS011;69515;42.072;21.504;2023-04-21T18:51:37;11.48;;;6.15;;
80193;SDS011;69515;42.072;21.504;2023-04-21T18:54:03;11.05;;;6.38;;
80193;SDS011;69515;42.072;21.504;2023-04-21T18:56:29;9.82;;;6.20;;
80193;SDS011;69515;42.072;21.504;2023-04-21T18:58:59;11.40;;;6.13;;
80193;SDS011;69515;42.072;21.504;2023-04-21T19:01:25;9.82;;;5.88;;
80193;SDS011;69515;42.072;21.504;2023-04-21T19:03:51;11.05;;;7.35;;
80193;SDS011;69515;42.072;21.504;2023-04-21T19:06:18;13.23;;;7.50;;
80193;SDS011;69515;42.072;21.504;2023-04-21T19:08:44;13.57;;;7.50;;
80193;SDS011;69515;42.072;21.504;2023-04-21T19:11:11;13.02;;;7.75;;
80193;SDS011;69515;42.072;21.504;2023-04-21T19:13:38;11.07;;;6.93;;
80193;SDS011;69515;42.072;21.504;2023-04-21T19:16:09;10.57;;;6.78;;
80193;SDS011;69515;42.072;21.504;2023-04-21T19:18:36;9.98;;;7.50;;
80193;SDS011;69515;42.072;21.504;2023-04-21T19:21:02;10.93;;;7.32;;
80193;SDS011;69515;42.072;21.504;2023-04-21T19:23:30;14.43;;;7.00;;
80193;SDS011;69515;42.072;21.504;2023-04-21T19:25:56;12.90;;;8.02;;
80193;SDS011;69515;42.072;21.504;2023-04-21T19:28:24;16.30;;;7.90;;
80193;SDS011;69515;42.072;21.504;2023-04-21T19:30:50;15.52;;;6.70;;
80193;SDS011;69515;42.072;21.504;2023-04-21T19:33:19;11.77;;;7.53;;
80193;SDS011;69515;42.072;21.504;2023-04-21T19:35:48;12.20;;;6.85;;
80193;SDS011;69515;42.072;21.504;2023-04-21T19:38:14;9.40;;;6.47;;
80193;SDS011;69515;42.072;21.504;2023-04-21T19:40:40;12.65;;;6.28;;
80193;SDS011;69515;42.072;21.504;2023-04-21T19:43:27;11.75;;;7.38;;
80193;SDS011;69515;42.072;21.504;2023-04-21T19:45:53;11.02;;;6.45;;
80193;SDS011;69515;42.072;21.504;2023-04-21T19:48:19;9.63;;;5.38;;
80193;SDS011;69515;42.072;21.504;2023-04-21T19:51:06;10.35;;;6.30;;
80193;SDS011;69515;42.072;21.504;2023-04-21T19:53:33;11.40;;;6.32;;
80193;SDS011;69515;42.072;21.504;2023-04-21T19:56:00;9.65;;;6.05;;
80193;SDS011;69515;42.072;21.504;2023-04-21T19:58:26;12.30;;;6.70;;
80193;SDS011;69515;42.072;21.504;2023-04-21T20:00:52;10.73;;;6.97;;
80193;SDS011;69515;42.072;21.504;2023-04-21T20:03:19;15.13;;;7.40;;
80193;SDS011;69515;42.072;21.504;2023-04-21T20:05:45;11.88;;;6.63;;
80193;SDS011;69515;42.072;21.504;2023-04-21T20:08:11;14.75;;;6.75;;
80193;SDS011;69515;42.072;21.504;2023-04-21T20:10:40;10.13;;;6.05;;
80193;SDS011;69515;42.072;21.504;2023-04-21T20:13:11;11.98;;;6.63;;
80193;SDS011;69515;42.072;21.504;2023-04-21T20:15:39;12.13;;;6.97;;
80193;SDS011;69515;42.072;21.504;2023-04-21T20:18:06;16.30;;;8.32;;
80193;SDS011;69515;42.072;21.504;2023-04-21T20:20:32;11.55;;;7.45;;
80193;SDS011;69515;42.072;21.504;2023-04-21T20:22:59;12.05;;;7.75;;
80193;SDS011;69515;42.072;21.504;2023-04-21T20:25:26;30.10;;;15.60;;
80193;SDS011;69515;42.072;21.504;2023-04-21T20:27:52;18.73;;;9.38;;
80193;SDS011;69515;42.072;21.504;2023-04-21T20:30:19;17.70;;;10.80;;
80193;SDS011;69515;42.072;21.504;2023-04-21T20:32:45;17.40;;;10.05;;